Time;durP1;ratioP1;P1;durP2;ratioP2;P2;SDS_P1;SDS_P2;PMS_P1;PMS_P2;Temp;Humidity;BMP_temperature;BMP_pressure;BME280_temperature;BME280_humidity;BME280_pressure;Samples;Min_cycle;Max_cycle;Signal;HPM_P1;HPM_P2
2021/03/31 00:00:33;;;;;;;12.97;4.00;;;;;;;6.71;46.52;100779.56;1787249;79;22486;-60
2021/03/31 00:03:03;;;;;;;10.27;3.27;;;;;;;6.70;46.50;100773.33;1793751;79;21051;-61
2021/03/31 00:05:32;;;;;;;5.47;3.20;;;;;;;6.71;46.59;100774.22;1789528;77;21191;-60
2021/03/31 00:08:00;;;;;;;5.13;3.20;;;;;;;6.69;46.58;100770.67;1790999;79;21505;-59
2021/03/31 00:10:46;;;;;;;12.10;3.43;;;;;;;6.69;46.54;100773.34;1790527;77;21191;-60
2021/03/31 00:13:14;;;;;;;6.03;4.07;;;;;;;6.68;46.45;100775.14;1788586;77;21197;-61
2021/03/31 00:15:41;;;;;;;9.10;3.40;;;;;;;6.68;46.56;100776.48;1793148;79;21609;-59
2021/03/31 00:18:09;;;;;;;7.03;3.40;;;;;;;6.69;46.52;100774.69;1789708;77;21091;-59
2021/03/31 00:20:38;;;;;;;8.07;3.53;;;;;;;6.67;46.57;100777.38;1791202;79;21119;-60
2021/03/31 00:23:07;;;;;;;7.30;3.60;;;;;;;6.68;46.64;100773.80;1787724;77;21194;-60
2021/03/31 00:25:37;;;;;;;8.97;4.03;;;;;;;6.68;46.62;100774.25;1792109;79;22390;-59
2021/03/31 00:28:05;;;;;;;7.93;4.17;;;;;;;6.68;46.64;100767.56;1791538;78;21561;-61
2021/03/31 00:30:33;;;;;;;8.57;2.87;;;;;;;6.67;46.60;100766.68;1795716;79;21466;-60
2021/03/31 00:33:00;;;;;;;6.13;3.67;;;;;;;6.67;46.60;100759.98;1788331;78;21178;-59
2021/03/31 00:35:28;;;;;;;6.73;3.63;;;;;;;6.69;46.60;100758.63;1791975;77;21437;-58
2021/03/31 00:37:56;;;;;;;7.70;4.43;;;;;;;6.66;46.66;100758.22;1787670;79;22747;-58
2021/03/31 00:40:26;;;;;;;5.93;2.93;;;;;;;6.67;46.66;100761.78;1792335;77;21167;-59
2021/03/31 00:42:54;;;;;;;3.63;2.87;;;;;;;6.65;46.64;100751.09;1775155;79;22458;-58
2021/03/31 00:45:22;;;;;;;10.13;4.00;;;;;;;6.65;46.73;100755.11;1772110;80;21206;-59
2021/03/31 00:47:49;;;;;;;11.43;5.03;;;;;;;6.64;46.72;100752.00;1772894;78;21206;-58
2021/03/31 00:50:18;;;;;;;10.30;4.40;;;;;;;6.64;46.85;100752.45;1774261;80;21666;-59
2021/03/31 00:52:48;;;;;;;7.83;4.33;;;;;;;6.62;47.02;100752.51;1771319;78;21190;-59
2021/03/31 00:55:19;;;;;;;6.27;3.37;;;;;;;6.61;47.24;100751.19;1783303;79;21215;-59
2021/03/31 00:57:47;;;;;;;10.67;4.83;;;;;;;6.60;47.69;100755.66;1786432;79;21170;-59
2021/03/31 01:00:16;;;;;;;6.77;4.17;;;;;;;6.59;48.34;100744.97;1786170;78;21403;-59
2021/03/31 01:02:43;;;;;;;7.83;4.90;;;;;;;6.58;48.71;100742.75;1784117;79;22113;-59
2021/03/31 01:05:16;;;;;;;7.60;4.50;;;;;;;6.58;49.07;100747.22;1782011;78;21177;-59
2021/03/31 01:07:52;;;;;;;5.80;3.90;;;;;;;6.60;49.06;100743.62;1868404;75;26587;-60
2021/03/31 01:10:23;;;;;;;8.87;4.37;;;;;;;6.57;48.89;100737.42;1782441;78;21223;-60
2021/03/31 01:13:26;;;;;;;5.63;4.17;;;;;;;6.55;49.02;100737.44;1764801;78;21429;-60
2021/03/31 01:16:08;;;;;;;7.40;3.57;;;;;;;6.55;49.63;100732.58;1803475;78;21467;-61
2021/03/31 01:19:01;;;;;;;10.53;5.37;;;;;;;6.51;50.61;100726.38;1780626;78;21059;-61
2021/03/31 01:21:55;;;;;;;6.50;4.27;;;;;;;6.48;51.44;100727.75;1776828;79;21198;-59
2021/03/31 01:25:14;;;;;;;7.43;4.97;;;;;;;6.45;51.95;100730.50;1732719;80;21952;-60
2021/03/31 01:27:56;;;;;;;8.07;4.43;;;;;;;6.42;52.49;100722.51;1668532;83;21416;-61
2021/03/31 01:31:09;;;;;;;8.23;4.70;;;;;;;6.36;53.10;100720.83;1663415;84;21593;-60
2021/03/31 01:33:41;;;;;;;10.83;5.50;;;;;;;6.32;53.87;100721.77;1663918;84;21024;-61
2021/03/31 01:36:10;;;;;;;8.23;5.65;;;;;;;6.25;54.28;100720.55;1664713;84;21162;-61
2021/03/31 01:38:38;;;;;;;15.53;5.97;;;;;;;6.22;54.60;100715.23;1664329;84;21191;-61
2021/03/31 01:41:06;;;;;;;12.70;5.80;;;;;;;6.17;54.66;100713.10;1637189;84;21736;-61
2021/03/31 01:43:34;;;;;;;10.53;6.80;;;;;;;6.14;54.60;100715.81;1664423;84;21196;-61
2021/03/31 01:46:04;;;;;;;9.27;5.50;;;;;;;6.11;54.62;100708.75;1666397;84;21176;-61
2021/03/31 01:48:31;;;;;;;12.97;7.23;;;;;;;6.09;54.46;100701.19;1660626;84;21144;-61
2021/03/31 01:51:07;;;;;;;11.87;5.80;;;;;;;6.07;54.66;100707.89;1641074;84;22022;-59
2021/03/31 01:53:35;;;;;;;8.87;5.83;;;;;;;6.04;54.72;100703.91;1662222;84;22306;-61
2021/03/31 01:56:03;;;;;;;7.00;5.97;;;;;;;6.03;54.50;100698.17;1665001;84;22048;-61
2021/03/31 01:58:32;;;;;;;9.83;5.77;;;;;;;6.02;54.45;100700.41;1664414;83;21900;-61
2021/03/31 02:00:59;;;;;;;14.07;6.73;;;;;;;6.02;54.57;100703.08;1661013;84;21469;-61
2021/03/31 02:03:26;;;;;;;11.67;5.67;;;;;;;6.03;54.48;100699.95;1663289;84;21240;-61
2021/03/31 02:05:55;;;;;;;12.20;6.23;;;;;;;6.03;54.76;100698.63;1664010;84;21598;-59
2021/03/31 02:08:23;;;;;;;13.57;7.60;;;;;;;6.02;54.85;100703.53;1662300;84;21188;-61
2021/03/31 02:10:50;;;;;;;9.30;5.13;;;;;;;6.02;54.62;100703.53;1661861;84;21164;-61
2021/03/31 02:13:18;;;;;;;8.60;5.47;;;;;;;6.01;54.62;100695.97;1642473;84;21519;-61
2021/03/31 02:15:47;;;;;;;10.70;7.53;;;;;;;6.01;54.71;100699.98;1665707;84;21160;-60
2021/03/31 02:18:18;;;;;;;13.47;7.03;;;;;;;6.01;54.74;100693.30;1664817;84;22646;-59
2021/03/31 02:20:46;;;;;;;11.87;6.90;;;;;;;6.01;54.68;100693.30;1662878;84;21184;-61
2021/03/31 02:23:14;;;;;;;9.40;6.13;;;;;;;6.03;54.63;100697.28;1664213;84;21165;-58
2021/03/31 02:25:41;;;;;;;10.53;6.17;;;;;;;6.03;54.65;100691.94;1662392;84;21141;-61
2021/03/31 02:28:08;;;;;;;14.10;7.57;;;;;;;6.01;54.54;100691.95;1666474;84;21169;-62
2021/03/31 02:30:35;;;;;;;13.67;7.23;;;;;;;6.00;54.65;100688.84;1664350;84;21648;-59
2021/03/31 02:33:05;;;;;;;16.47;7.57;;;;;;;5.99;54.71;100680.40;1661315;84;22408;-59
2021/03/31 02:35:32;;;;;;;12.03;7.63;;;;;;;5.98;54.53;100683.97;1662671;84;21725;-62
2021/03/31 02:38:08;;;;;;;11.97;6.50;;;;;;;5.99;54.70;100686.19;1629447;84;21471;-61
2021/03/31 02:40:36;;;;;;;11.30;6.83;;;;;;;5.99;54.69;100679.06;1666144;84;21664;-60
2021/03/31 02:43:06;;;;;;;11.90;7.73;;;;;;;5.98;54.58;100677.29;1635558;84;22020;-61
2021/03/31 02:45:34;;;;;;;14.53;7.17;;;;;;;5.97;54.66;100679.53;1661959;84;21263;-60
2021/03/31 02:48:05;;;;;;;16.97;7.13;;;;;;;5.95;54.63;100674.69;1635574;84;21224;-61
2021/03/31 02:50:32;;;;;;;13.10;6.97;;;;;;;5.96;54.82;100678.21;1662488;84;21753;-61
2021/03/31 02:52:59;;;;;;;13.73;8.00;;;;;;;5.95;54.88;100676.47;1661236;84;21240;-61
2021/03/31 02:55:28;;;;;;;8.40;5.87;;;;;;;5.96;55.07;100678.21;1661584;84;21257;-59
2021/03/31 02:57:56;;;;;;;10.83;7.43;;;;;;;5.96;55.16;100681.77;1633162;85;21210;-62
2021/03/31 03:00:24;;;;;;;10.73;6.40;;;;;;;5.96;55.40;100678.21;1605094;87;21346;-62
2021/03/31 03:02:52;;;;;;;11.33;7.80;;;;;;;5.97;55.76;100677.30;1604601;87;21629;-60
2021/03/31 03:05:20;;;;;;;15.33;7.30;;;;;;;5.97;56.31;100680.87;1606543;87;21203;-62
2021/03/31 03:07:47;;;;;;;11.43;7.23;;;;;;;5.97;56.69;100675.97;1631961;85;21685;-62
2021/03/31 03:10:15;;;;;;;11.03;6.73;;;;;;;5.95;56.78;100669.80;1605289;87;21234;-60
2021/03/31 03:12:47;;;;;;;15.63;7.67;;;;;;;5.92;57.06;100670.71;1633713;85;21214;-61
2021/03/31 03:15:16;;;;;;;17.80;8.27;;;;;;;5.89;57.46;100672.53;1630249;85;21210;-61
2021/03/31 03:17:43;;;;;;;10.37;7.30;;;;;;;5.85;57.44;100669.00;1630880;85;21538;-61
2021/03/31 03:20:11;;;;;;;12.53;7.20;;;;;;;5.84;57.63;100671.70;1630444;85;22296;-62
2021/03/31 03:22:41;;;;;;;14.60;7.53;;;;;;;5.84;57.63;100663.68;1628079;85;21191;-62
2021/03/31 03:25:10;;;;;;;11.47;7.57;;;;;;;5.84;57.58;100663.68;1631183;85;21202;-61
2021/03/31 03:27:40;;;;;;;14.87;8.30;;;;;;;5.82;57.79;100662.36;1629919;85;21819;-62
2021/03/31 03:30:09;;;;;;;13.30;7.83;;;;;;;5.82;57.78;100663.70;1610651;87;22237;-61
2021/03/31 03:32:40;;;;;;;11.80;7.63;;;;;;;5.81;57.74;100662.38;1629631;85;21238;-61
2021/03/31 03:35:13;;;;;;;15.17;8.67;;;;;;;5.80;58.08;100658.81;1630961;85;21255;-62
2021/03/31 03:37:43;;;;;;;10.47;7.17;;;;;;;5.79;58.11;100659.72;1629814;85;21239;-62
2021/03/31 03:40:12;;;;;;;10.63;7.57;;;;;;;5.79;58.44;100655.71;1628029;85;21215;-62
2021/03/31 03:42:39;;;;;;;14.23;7.83;;;;;;;5.79;58.73;100653.49;1629155;85;21187;-61
2021/03/31 03:45:07;;;;;;;12.17;6.77;;;;;;;5.77;58.74;100653.99;1603513;85;22373;-61
2021/03/31 03:47:35;;;;;;;10.77;6.97;;;;;;;5.75;58.91;100657.13;1632030;85;21688;-62
2021/03/31 03:50:10;;;;;;;9.93;6.97;;;;;;;5.71;59.20;100650.94;1628117;85;21219;-62
2021/03/31 03:52:38;;;;;;;10.47;7.10;;;;;;;5.70;59.20;100659.84;1610611;86;21234;-61
2021/03/31 03:55:07;;;;;;;10.97;7.20;;;;;;;5.70;59.57;100659.84;1633896;85;21219;-60
2021/03/31 03:57:34;;;;;;;10.67;7.07;;;;;;;5.69;59.68;100648.77;1632532;85;22280;-64
2021/03/31 04:00:12;;;;;;;14.10;7.67;;;;;;;5.69;59.67;100660.78;1635367;85;21175;-63
2021/03/31 04:02:40;;;;;;;11.47;8.00;;;;;;;5.69;59.71;100658.11;1636810;85;21179;-62
2021/03/31 04:05:09;;;;;;;13.20;7.97;;;;;;;5.69;59.97;100655.44;1627170;85;21669;-63
2021/03/31 04:07:36;;;;;;;17.57;7.97;;;;;;;5.68;60.19;100650.55;1630117;85;21239;-61
2021/03/31 04:10:06;;;;;;;11.43;7.33;;;;;;;5.68;60.18;100647.88;1635710;85;22680;-65
2021/03/31 04:12:35;;;;;;;10.87;7.97;;;;;;;5.70;60.44;100650.50;1631988;85;21286;-62
2021/03/31 04:15:07;;;;;;;14.20;7.73;;;;;;;5.69;60.67;100652.77;1609882;85;21699;-63
2021/03/31 04:17:39;;;;;;;15.87;8.63;;;;;;;5.67;61.06;100648.78;1633281;85;21210;-64
2021/03/31 04:20:20;;;;;;;12.93;9.03;;;;;;;5.67;61.71;100650.11;1637199;85;21155;-62
2021/03/31 04:22:47;;;;;;;16.63;9.83;;;;;;;5.65;61.92;100649.24;1634374;85;21312;-64
2021/03/31 04:25:16;;;;;;;12.20;7.23;;;;;;;5.62;62.38;100652.39;1635555;85;21661;-65
2021/03/31 04:27:48;;;;;;;16.83;8.03;;;;;;;5.62;62.60;100656.41;1631206;85;21255;-62
2021/03/31 04:30:16;;;;;;;15.77;7.40;;;;;;;5.62;62.81;100646.60;1628066;86;21233;-63
2021/03/31 04:32:45;;;;;;;15.03;8.13;;;;;;;5.65;62.94;100643.91;1628571;86;21532;-64
2021/03/31 04:35:13;;;;;;;12.63;7.77;;;;;;;5.67;63.29;100640.77;1629125;86;22157;-63
2021/03/31 04:37:41;;;;;;;14.93;9.27;;;;;;;5.73;63.28;100636.23;1609504;86;21559;-64
2021/03/31 04:40:13;;;;;;;12.30;8.90;;;;;;;5.74;63.27;100638.88;1624727;86;21176;-62
2021/03/31 04:42:41;;;;;;;13.43;8.97;;;;;;;5.75;63.44;100634.42;1632935;86;21160;-65
2021/03/31 04:45:12;;;;;;;16.27;8.73;;;;;;;5.76;63.34;100630.40;1628772;86;21156;-61
2021/03/31 04:47:39;;;;;;;18.13;8.77;;;;;;;5.78;63.27;100633.05;1629673;86;21578;-64
2021/03/31 04:50:09;;;;;;;20.43;9.37;;;;;;;5.78;63.14;100637.06;1632162;86;21182;-62
2021/03/31 04:52:38;;;;;;;14.47;9.13;;;;;;;5.76;63.24;100640.20;1659384;84;21465;-64
2021/03/31 04:55:07;;;;;;;11.63;8.73;;;;;;;5.73;63.18;100631.77;1657919;84;21579;-63
2021/03/31 04:57:36;;;;;;;15.20;9.07;;;;;;;5.75;63.16;100633.97;1658328;84;21186;-63
2021/03/31 05:00:07;;;;;;;14.20;8.53;;;;;;;5.75;63.19;100637.98;1657449;84;21397;-60
2021/03/31 05:02:34;;;;;;;13.30;8.57;;;;;;;5.75;63.03;100633.97;1631365;85;21176;-62
2021/03/31 05:05:03;;;;;;;14.33;9.60;;;;;;;5.74;63.00;100638.88;1658881;84;21167;-62
2021/03/31 05:07:32;;;;;;;23.57;10.00;;;;;;;5.74;63.00;100636.66;1598279;87;21627;-62
2021/03/31 05:10:00;;;;;;;14.07;9.43;;;;;;;5.73;63.00;100646.46;1613093;86;21139;-64
2021/03/31 05:12:27;;;;;;;12.73;9.33;;;;;;;5.73;63.14;100639.78;1661974;84;21398;-63
2021/03/31 05:14:56;;;;;;;15.27;9.90;;;;;;;5.74;63.16;100634.88;1655307;84;21140;-63
2021/03/31 05:17:23;;;;;;;15.33;9.23;;;;;;;5.75;63.27;100640.65;1657411;84;21588;-62
2021/03/31 05:19:51;;;;;;;18.17;10.90;;;;;;;5.78;63.35;100645.96;1660108;84;21152;-61
2021/03/31 05:22:18;;;;;;;15.03;9.77;;;;;;;5.80;63.25;100646.80;1658637;84;21133;-64
2021/03/31 05:24:46;;;;;;;17.40;10.80;;;;;;;5.81;63.23;100645.01;1660953;84;21498;-62
2021/03/31 05:27:13;;;;;;;26.23;13.83;;;;;;;5.84;63.42;100641.85;1658280;84;21244;-62
2021/03/31 05:29:41;;;;;;;21.70;14.67;;;;;;;5.91;63.50;100643.55;1611961;86;21272;-63
2021/03/31 05:32:09;;;;;;;17.03;12.87;;;;;;;5.95;63.61;100646.63;1640968;85;21582;-62
2021/03/31 05:34:36;;;;;;;18.03;11.87;;;;;;;6.00;63.68;100636.73;1639969;85;21128;-63
2021/03/31 05:37:06;;;;;;;16.63;11.37;;;;;;;6.07;63.72;100641.52;1636091;85;21269;-62
2021/03/31 05:39:35;;;;;;;14.83;10.20;;;;;;;6.12;63.62;100636.13;1637666;85;21270;-63
2021/03/31 05:42:04;;;;;;;14.07;10.53;;;;;;;6.17;63.77;100636.91;1632316;85;21720;-63
2021/03/31 05:44:32;;;;;;;13.57;10.03;;;;;;;6.19;63.72;100635.99;1640934;85;21235;-63
2021/03/31 05:46:59;;;;;;;19.67;11.80;;;;;;;6.23;63.73;100646.16;1638975;85;21227;-64
2021/03/31 05:49:26;;;;;;;17.23;12.13;;;;;;;6.25;63.71;100640.34;1640638;85;21661;-63
2021/03/31 05:51:54;;;;;;;16.57;11.23;;;;;;;6.25;63.61;100639.89;1637692;85;21718;-62
2021/03/31 05:54:21;;;;;;;17.10;12.30;;;;;;;6.27;63.57;100634.52;1639713;85;21203;-63
2021/03/31 05:56:51;;;;;;;15.83;11.37;;;;;;;6.29;63.69;100634.05;1640190;85;21233;-63
2021/03/31 05:59:18;;;;;;;14.20;11.27;;;;;;;6.31;63.58;100628.20;1636337;85;21731;-63
2021/03/31 06:01:46;;;;;;;22.23;13.07;;;;;;;6.34;63.60;100624.15;1638372;85;21796;-64
2021/03/31 06:04:15;;;;;;;18.53;11.07;;;;;;;6.37;63.70;100627.67;1619713;85;21680;-62
2021/03/31 06:06:44;;;;;;;16.33;12.07;;;;;;;6.39;63.64;100624.48;1640272;85;21193;-64
2021/03/31 06:09:12;;;;;;;19.17;13.00;;;;;;;6.42;63.63;100616.42;1639676;85;21147;-62
2021/03/31 06:11:55;;;;;;;20.67;15.23;;;;;;;6.47;63.74;100614.98;1634828;85;21501;-61
2021/03/31 06:14:38;;;;;;;21.87;15.87;;;;;;;6.51;63.68;100611.36;1636587;85;21223;-62
2021/03/31 06:17:12;;;;;;;23.77;14.73;;;;;;;6.59;63.61;100611.22;1638698;85;21100;-62
2021/03/31 06:19:43;;;;;;;23.70;16.83;;;;;;;6.65;63.69;100609.30;1640756;85;21716;-62
2021/03/31 06:22:27;;;;;;;24.30;16.63;;;;;;;6.72;63.69;100612.77;1636897;85;21210;-62
2021/03/31 06:25:16;;;;;;;20.50;14.90;;;;;;;6.77;63.61;100610.88;1639930;85;21231;-62
2021/03/31 06:27:42;;;;;;;20.97;15.57;;;;;;;6.82;63.62;100612.55;1636055;85;21235;-62
2021/03/31 06:30:21;;;;;;;22.17;16.30;;;;;;;6.86;63.49;100606.69;1641191;85;22184;-63
2021/03/31 06:32:49;;;;;;;24.03;16.47;;;;;;;6.89;63.56;100604.42;1638705;85;21163;-62
2021/03/31 06:35:19;;;;;;;22.57;15.53;;;;;;;6.94;63.61;100605.20;1601079;85;21286;-62
2021/03/31 06:37:48;;;;;;;22.40;16.33;;;;;;;6.97;63.54;100600.68;1639188;85;21230;-63
2021/03/31 06:40:42;;;;;;;21.43;14.83;;;;;;;7.00;63.56;100595.70;1637983;85;21693;-62
2021/03/31 06:43:30;;;;;;;18.80;14.17;;;;;;;7.02;63.65;100592.08;1638923;85;21242;-63
2021/03/31 06:46:03;;;;;;;17.80;13.87;;;;;;;7.05;63.72;100582.66;1609835;88;21704;-64
2021/03/31 06:48:30;;;;;;;21.90;13.70;;;;;;;7.06;63.86;100576.36;1668541;83;21509;-62
2021/03/31 06:50:57;;;;;;;24.27;15.00;;;;;;;7.10;63.83;100582.55;1651293;84;21199;-62
2021/03/31 06:58:01;;;;;;;27.40;14.50;;;;;;;7.19;64.02;100577.00;1671014;83;21263;-61
2021/03/31 07:00:32;;;;;;;21.63;13.00;;;;;;;7.29;64.12;100578.58;1671340;83;21912;-63
2021/03/31 07:03:03;;;;;;;20.23;14.23;;;;;;;7.35;64.19;100577.09;1665873;83;21207;-61
2021/03/31 07:05:37;;;;;;;20.77;13.27;;;;;;;7.43;64.15;100575.13;1667936;83;21758;-62
2021/03/31 07:08:07;;;;;;;19.83;13.57;;;;;;;7.51;64.13;100568.25;1672405;84;21376;-64
2021/03/31 07:10:48;;;;;;;22.73;15.17;;;;;;;7.58;64.05;100561.38;1669994;83;21241;-61
2021/03/31 07:13:32;;;;;;;23.57;14.50;;;;;;;7.67;63.97;100555.37;1671950;84;21224;-62
2021/03/31 07:16:05;;;;;;;24.77;16.40;;;;;;;7.75;63.92;100560.09;1671017;83;21212;-60
2021/03/31 07:18:33;;;;;;;20.17;14.87;;;;;;;7.81;63.77;100551.92;1673761;83;21655;-61
2021/03/31 07:21:02;;;;;;;22.67;15.53;;;;;;;7.87;63.69;100549.09;1670739;84;21361;-62
2021/03/31 07:23:29;;;;;;;22.97;15.77;;;;;;;7.93;63.50;100556.51;1672377;84;21659;-60
2021/03/31 07:25:57;;;;;;;23.50;15.23;;;;;;;7.98;63.52;100554.62;1670471;84;21744;-64
2021/03/31 07:28:28;;;;;;;29.83;15.83;;;;;;;8.05;63.39;100550.43;1668420;83;21251;-61
2021/03/31 07:30:56;;;;;;;24.73;16.77;;;;;;;8.11;63.47;100544.91;1663434;83;21248;-63
2021/03/31 07:33:27;;;;;;;23.40;15.47;;;;;;;8.19;63.42;100549.61;1666684;84;22509;-60
2021/03/31 07:35:55;;;;;;;21.30;14.77;;;;;;;8.25;63.50;100546.30;1664790;84;21228;-64
2021/03/31 07:38:23;;;;;;;21.47;14.10;;;;;;;8.35;63.43;100538.93;1668030;84;21671;-62
2021/03/31 07:40:51;;;;;;;23.30;14.50;;;;;;;8.47;63.37;100541.75;1670404;83;21132;-63
2021/03/31 07:43:26;;;;;;;18.33;13.60;;;;;;;8.59;63.22;100538.75;1667638;84;21643;-62
2021/03/31 07:46:12;;;;;;;20.23;15.23;;;;;;;8.69;63.02;100544.25;1667732;84;22010;-63
2021/03/31 07:48:41;;;;;;;24.40;15.90;;;;;;;8.78;62.89;100539.97;1668345;84;21754;-64
2021/03/31 07:51:19;;;;;;;25.07;16.13;;;;;;;8.89;62.82;100540.55;1670675;84;21156;-63
2021/03/31 07:53:49;;;;;;;22.00;16.07;;;;;;;8.97;62.62;100541.67;1669915;83;21033;-63
2021/03/31 07:56:24;;;;;;;25.73;16.73;;;;;;;9.04;62.24;100542.78;1667115;83;21167;-64
2021/03/31 07:59:16;;;;;;;27.50;17.93;;;;;;;9.11;62.12;100536.76;1663848;84;22033;-62
2021/03/31 08:01:52;;;;;;;26.70;15.23;;;;;;;9.17;62.00;100539.75;1665587;83;21163;-61
2021/03/31 08:04:21;;;;;;;21.97;15.07;;;;;;;9.21;61.70;100539.59;1670471;84;21161;-62
2021/03/31 08:06:56;;;;;;;27.33;15.87;;;;;;;9.23;61.42;100535.52;1665791;84;21184;-59
2021/03/31 08:09:33;;;;;;;31.03;16.43;;;;;;;9.24;61.28;100533.26;1667209;84;21161;-63
2021/03/31 08:12:05;;;;;;;25.93;16.50;;;;;;;9.24;61.12;100533.26;1669172;84;22348;-63
2021/03/31 08:14:42;;;;;;;24.80;15.90;;;;;;;9.24;61.12;100523.39;1664010;83;21168;-61
2021/03/31 08:17:13;;;;;;;20.47;14.70;;;;;;;9.26;61.06;100533.64;1663901;84;21163;-61
2021/03/31 08:19:44;;;;;;;20.83;14.53;;;;;;;9.27;61.03;100523.28;1667591;84;21168;-60
2021/03/31 08:22:33;;;;;;;21.30;16.10;;;;;;;9.30;61.21;100525.00;1667376;84;21453;-63
2021/03/31 08:25:21;;;;;;;20.53;14.50;;;;;;;9.33;61.15;100530.30;1666703;84;21659;-62
2021/03/31 08:28:00;;;;;;;22.93;15.73;;;;;;;9.36;61.10;100519.42;1669457;84;21175;-63
2021/03/31 08:30:28;;;;;;;20.07;14.40;;;;;;;9.39;61.02;100522.03;1662141;84;21209;-63
2021/03/31 08:32:55;;;;;;;20.57;15.43;;;;;;;9.41;61.10;100517.50;1663363;84;21260;-62
2021/03/31 08:35:26;;;;;;;21.73;16.07;;;;;;;9.47;61.19;100510.58;1660052;84;21794;-63
2021/03/31 08:37:53;;;;;;;25.23;17.17;;;;;;;9.53;61.21;100510.87;1662705;84;21356;-62
2021/03/31 08:40:21;;;;;;;24.93;18.07;;;;;;;9.60;61.09;100507.05;1663382;84;21228;-63
2021/03/31 08:42:53;;;;;;;22.53;16.03;;;;;;;9.67;61.15;100506.80;1654363;84;22493;-60
2021/03/31 08:45:29;;;;;;;25.30;18.33;;;;;;;9.74;60.89;100496.25;1660236;84;21746;-63
2021/03/31 08:47:58;;;;;;;27.77;17.87;;;;;;;9.81;60.58;100497.80;1660707;84;21224;-62
2021/03/31 08:50:30;;;;;;;25.30;17.30;;;;;;;9.89;60.56;100500.23;1658661;84;22465;-62
2021/03/31 08:53:03;;;;;;;22.33;17.43;;;;;;;9.97;60.54;100501.31;1662406;84;21530;-63
2021/03/31 08:55:34;;;;;;;21.60;17.35;;;;;;;10.03;60.54;100491.72;1658026;84;21152;-62
2021/03/31 08:58:09;;;;;;;25.57;16.93;;;;;;;10.11;60.27;100490.98;1664275;84;21251;-62
2021/03/31 09:00:50;;;;;;;29.82;18.60;;;;;;;10.17;59.94;100493.02;1656956;84;21631;-62
2021/03/31 09:03:17;;;;;;;21.77;16.37;;;;;;;10.24;59.91;100484.27;1659283;84;21647;-61
2021/03/31 09:05:59;;;;;;;26.07;16.53;;;;;;;10.32;59.75;100481.30;1658476;84;21276;-60
2021/03/31 09:08:29;;;;;;;25.83;15.87;;;;;;;10.42;59.47;100480.04;1664878;84;21149;-60
2021/03/31 09:11:03;;;;;;;23.83;16.83;;;;;;;10.51;59.30;100475.20;1660212;84;21259;-63
2021/03/31 09:13:35;;;;;;;24.13;16.83;;;;;;;10.60;59.17;100481.59;1660118;84;21219;-62
2021/03/31 09:16:09;;;;;;;25.57;16.80;;;;;;;10.68;59.06;100477.27;1663705;84;22744;-62
2021/03/31 09:18:42;;;;;;;22.22;15.88;;;;;;;10.78;58.99;100480.51;1662521;84;21276;-62
2021/03/31 09:21:12;;;;;;;17.93;14.60;;;;;;;10.87;58.44;100486.43;1663347;84;21815;-62
2021/03/31 09:23:45;;;;;;;21.27;15.67;;;;;;;10.94;58.38;100478.98;1660772;84;21687;-60
2021/03/31 09:26:13;;;;;;;20.77;15.40;;;;;;;11.03;58.33;100477.76;1661464;84;21220;-60
2021/03/31 09:28:41;;;;;;;22.93;15.93;;;;;;;11.14;58.03;100474.19;1661017;84;22815;-62
2021/03/31 09:31:12;;;;;;;22.07;15.97;;;;;;;11.24;57.50;100473.74;1661066;84;21252;-62
2021/03/31 09:33:44;;;;;;;23.30;17.40;;;;;;;11.29;57.37;100473.11;1660780;84;21161;-63
2021/03/31 09:36:15;;;;;;;28.47;16.97;;;;;;;11.34;57.27;100470.22;1636528;84;21200;-61
2021/03/31 09:38:48;;;;;;;25.17;17.47;;;;;;;11.43;57.14;100471.66;1630858;85;21205;-62
2021/03/31 09:41:17;;;;;;;19.00;14.77;;;;;;;11.49;57.00;100469.59;1564488;87;21259;-62
2021/03/31 09:43:47;;;;;;;21.63;15.77;;;;;;;11.54;56.73;100470.77;1636390;85;21254;-60
2021/03/31 09:46:18;;;;;;;20.13;15.43;;;;;;;11.60;56.38;100470.51;1630762;85;21230;-62
2021/03/31 09:48:46;;;;;;;17.13;14.43;;;;;;;11.66;56.23;100467.55;1607608;86;21238;-60
2021/03/31 09:51:14;;;;;;;17.30;14.03;;;;;;;11.73;56.16;100463.69;1604961;86;21237;-60
2021/03/31 09:53:42;;;;;;;23.93;14.93;;;;;;;11.78;56.17;100460.81;1632208;85;21641;-62
2021/03/31 09:56:11;;;;;;;20.62;14.80;;;;;;;11.84;55.64;100464.59;1583598;86;21222;-61
2021/03/31 09:58:40;;;;;;;19.40;15.77;;;;;;;11.87;55.49;100461.78;1636944;85;21175;-62
2021/03/31 10:01:15;;;;;;;25.25;16.50;;;;;;;11.92;55.66;100458.41;1632111;85;21191;-63
2021/03/31 10:03:43;;;;;;;23.70;15.95;;;;;;;11.96;55.94;100459.58;1632183;85;21248;-61
2021/03/31 10:06:21;;;;;;;20.27;15.90;;;;;;;12.00;56.09;100460.30;1636801;86;21883;-62
2021/03/31 10:08:48;;;;;;;23.27;16.27;;;;;;;12.03;55.89;100455.66;1635630;85;21179;-62
2021/03/31 10:11:35;;;;;;;25.08;15.70;;;;;;;12.07;55.85;100453.73;1634546;85;21523;-63
2021/03/31 10:14:04;;;;;;;26.47;17.57;;;;;;;12.08;55.97;100456.80;1631700;85;21203;-62
2021/03/31 10:16:39;;;;;;;24.77;16.55;;;;;;;12.09;55.92;100450.46;1636421;85;21152;-63
2021/03/31 10:19:09;;;;;;;23.95;17.35;;;;;;;12.07;55.88;100453.25;1609072;85;21241;-62
2021/03/31 10:21:37;;;;;;;20.95;15.48;;;;;;;12.06;55.86;100447.92;1595178;87;21782;-62
2021/03/31 10:24:10;;;;;;;24.60;15.68;;;;;;;12.06;55.82;100451.97;1604064;87;21192;-60
2021/03/31 10:26:43;;;;;;;20.85;15.58;;;;;;;12.08;55.42;100452.28;1616180;86;21234;-62
2021/03/31 10:29:24;;;;;;;24.70;18.00;;;;;;;12.08;55.21;100450.93;1613227;85;21213;-60
2021/03/31 10:31:54;;;;;;;19.90;14.58;;;;;;;12.07;55.33;100454.61;1635738;85;21197;-63
2021/03/31 10:34:22;;;;;;;27.77;17.65;;;;;;;12.06;55.41;100451.97;1637833;85;21608;-63
2021/03/31 10:37:04;;;;;;;26.35;18.15;;;;;;;12.04;55.70;100449.80;1632833;85;21197;-63
2021/03/31 10:53:35;;;;;;;22.07;15.90;;;;;;;11.97;56.05;100436.17;1817210;76;22674;-62
2021/03/31 10:56:04;;;;;;;23.35;16.73;;;;;;;11.93;56.17;100438.11;1798474;77;20946;-61
2021/03/31 10:58:31;;;;;;;22.90;17.15;;;;;;;11.96;56.07;100437.11;1791734;77;22523;-62
2021/03/31 11:00:58;;;;;;;26.85;18.55;;;;;;;11.98;55.99;100437.45;1793591;79;21530;-62
2021/03/31 11:03:26;;;;;;;28.38;18.77;;;;;;;12.01;56.04;100433.73;1790947;78;21861;-61
2021/03/31 11:05:54;;;;;;;26.85;19.00;;;;;;;12.03;55.81;100421.94;1795837;77;21323;-62
2021/03/31 11:08:22;;;;;;;27.58;17.90;;;;;;;12.07;55.75;100415.48;1794577;77;20970;-63
2021/03/31 11:10:50;;;;;;;27.32;17.50;;;;;;;12.13;55.86;100416.55;1795412;78;22347;-61
2021/03/31 11:13:18;;;;;;;26.52;17.95;;;;;;;12.21;55.87;100410.80;1791143;78;20965;-62
2021/03/31 11:15:47;;;;;;;27.25;18.00;;;;;;;12.30;55.45;100406.82;1790495;77;21122;-60
2021/03/31 11:26:08;;;;;;;23.45;18.37;;;;;;;12.61;55.08;100386.91;1795137;77;20977;-61
2021/03/31 11:28:36;;;;;;;25.88;19.12;;;;;;;12.70;55.10;100382.91;1793863;79;21122;-61
2021/03/31 11:31:05;;;;;;;25.02;18.10;;;;;;;12.78;55.15;100382.95;1792807;78;21385;-62
2021/03/31 11:33:32;;;;;;;27.07;19.17;;;;;;;12.86;54.99;100374.47;1791983;77;21083;-60
2021/03/31 11:35:59;;;;;;;24.37;17.12;;;;;;;12.95;55.08;100374.03;1789451;78;21960;-60
2021/03/31 11:38:27;;;;;;;25.97;18.92;;;;;;;13.04;54.72;100377.64;1788678;79;21171;-62
2021/03/31 11:40:56;;;;;;;29.50;18.10;;;;;;;13.08;54.39;100377.04;1788488;79;21186;-62
2021/03/31 11:43:23;;;;;;;27.73;18.80;;;;;;;13.11;54.49;100375.52;1762238;78;21456;-62
2021/03/31 11:45:51;;;;;;;21.75;17.60;;;;;;;13.14;54.63;100373.59;1761275;80;21206;-60
2021/03/31 11:48:18;;;;;;;28.92;18.42;;;;;;;13.17;54.70;100376.16;1770982;79;22312;-62
2021/03/31 11:50:46;;;;;;;28.80;18.55;;;;;;;13.19;54.83;100370.64;1766809;80;21631;-62
2021/03/31 11:53:14;;;;;;;25.35;17.90;;;;;;;13.21;55.06;100374.16;1779519;78;21845;-59
2021/03/31 11:55:44;;;;;;;27.48;18.70;;;;;;;13.21;55.32;100362.87;1783011;79;21217;-59
2021/03/31 11:58:11;;;;;;;22.20;16.62;;;;;;;13.25;55.33;100364.48;1781099;79;21153;-62
2021/03/31 12:00:38;;;;;;;28.80;17.80;;;;;;;13.29;55.29;100363.84;1781365;78;22292;-59
2021/03/31 12:03:06;;;;;;;23.18;15.72;;;;;;;13.35;55.26;100363.55;1783279;78;21209;-61